Time;durP1;ratioP1;P1;durP2;ratioP2;P2;SDS_P1;SDS_P2;PMS_P1;PMS_P2;Temp;Humidity;BMP_temperature;BMP_pressure;BME280_temperature;BME280_humidity;BME280_pressure;Samples;Min_cycle;Max_cycle;Signal;HPM_P1;HPM_P2
2022/01/08 00:02:24;;;;;;;27.77;15.98;;;;;;;;;;5052144;28;20120;-65
2022/01/08 00:04:50;;;;;;;30.10;17.23;;;;;;;;;;5039573;28;20473;-65
2022/01/08 00:07:16;;;;;;;30.55;16.00;;;;;;;;;;5034957;28;20042;-64
2022/01/08 00:09:42;;;;;;;29.25;16.38;;;;;;;;;;5052301;28;20029;-67
2022/01/08 00:12:08;;;;;;;25.63;14.77;;;;;;;;;;5052226;28;20045;-65
2022/01/08 00:14:35;;;;;;;27.67;15.02;;;;;;;;;;5046619;28;20484;-66
2022/01/08 00:17:01;;;;;;;29.02;16.42;;;;;;;;;;5038803;28;20195;-67
2022/01/08 00:19:27;;;;;;;27.95;14.80;;;;;;;;;;5050961;28;20139;-64
2022/01/08 00:21:53;;;;;;;29.00;15.30;;;;;;;;;;5050016;28;20033;-64
2022/01/08 00:24:19;;;;;;;29.65;16.88;;;;;;;;;;5036524;28;20053;-64
2022/01/08 00:26:45;;;;;;;32.00;16.92;;;;;;;;;;5033524;28;20052;-65
2022/01/08 00:29:10;;;;;;;26.25;15.13;;;;;;;;;;5041746;28;20464;-64
2022/01/08 00:31:37;;;;;;;25.33;14.43;;;;;;;;;;5031321;28;20041;-67
2022/01/08 00:34:02;;;;;;;25.17;13.98;;;;;;;;;;5037592;28;20064;-67
2022/01/08 00:36:28;;;;;;;21.08;13.25;;;;;;;;;;5051730;28;20060;-66
2022/01/08 00:38:54;;;;;;;24.70;13.27;;;;;;;;;;5052189;28;20021;-66
2022/01/08 00:41:20;;;;;;;23.88;13.98;;;;;;;;;;5045520;28;20037;-66
2022/01/08 00:43:46;;;;;;;20.67;12.98;;;;;;;;;;5033326;28;20040;-67
2022/01/08 00:46:11;;;;;;;23.92;13.85;;;;;;;;;;5031701;28;20476;-69
2022/01/08 00:48:37;;;;;;;21.30;13.20;;;;;;;;;;5032234;28;20057;-68
2022/01/08 00:51:03;;;;;;;21.73;12.80;;;;;;;;;;5031162;28;20148;-67
2022/01/08 00:53:29;;;;;;;21.13;12.82;;;;;;;;;;5039924;28;20511;-69
2022/01/08 00:55:54;;;;;;;19.15;12.15;;;;;;;;;;5031751;28;20057;-72
2022/01/08 00:58:20;;;;;;;23.70;13.30;;;;;;;;;;5030792;28;20036;-67
2022/01/08 01:00:46;;;;;;;23.63;14.20;;;;;;;;;;5029784;28;20104;-66
2022/01/08 01:03:12;;;;;;;24.45;14.45;;;;;;;;;;5031332;28;20539;-68
2022/01/08 01:05:38;;;;;;;28.15;15.30;;;;;;;;;;5037319;28;20086;-68
2022/01/08 01:08:04;;;;;;;24.52;15.43;;;;;;;;;;5036331;28;20460;-69
2022/01/08 01:10:30;;;;;;;24.42;14.82;;;;;;;;;;5031650;28;20507;-66
2022/01/08 01:12:55;;;;;;;23.80;14.20;;;;;;;;;;5031817;28;20029;-67
2022/01/08 01:15:21;;;;;;;25.15;14.25;;;;;;;;;;5032021;28;20388;-65
2022/01/08 01:17:47;;;;;;;21.65;13.95;;;;;;;;;;5031808;28;20022;-65
2022/01/08 01:20:16;;;;;;;22.70;14.05;;;;;;;;;;5031056;28;20393;-68
2022/01/08 01:28:24;;;;;;;28.45;15.15;;;;;;;;;;5031689;28;20451;-64
2022/01/08 01:42:19;;;;;;;25.25;13.68;;;;;;;;;;5032062;28;20103;-74
2022/01/08 01:47:33;;;;;;;21.48;12.93;;;;;;;;;;5031717;28;20159;-65
2022/01/08 01:49:58;;;;;;;22.33;12.65;;;;;;;;;;5031429;28;20030;-64
2022/01/08 01:52:24;;;;;;;21.55;12.20;;;;;;;;;;5031363;28;20135;-65
2022/01/08 01:54:50;;;;;;;21.83;12.70;;;;;;;;;;5031631;28;20037;-64
2022/01/08 01:57:17;;;;;;;22.88;12.35;;;;;;;;;;5031498;28;20029;-65
2022/01/08 01:59:43;;;;;;;18.65;11.70;;;;;;;;;;5031623;28;20029;-65
2022/01/08 02:02:09;;;;;;;20.05;11.55;;;;;;;;;;5031291;28;20464;-65
2022/01/08 02:04:36;;;;;;;21.20;13.13;;;;;;;;;;5031487;28;20041;-67
2022/01/08 02:07:02;;;;;;;21.33;12.10;;;;;;;;;;5031388;28;20104;-64
2022/01/08 02:09:28;;;;;;;23.58;13.20;;;;;;;;;;5031254;28;20033;-64
2022/01/08 02:12:11;;;;;;;21.17;12.15;;;;;;;;;;5031787;28;20392;-66
2022/01/08 02:14:39;;;;;;;22.80;12.75;;;;;;;;;;5034904;28;20527;-65
2022/01/08 02:17:06;;;;;;;21.23;11.88;;;;;;;;;;5034718;28;20026;-65
2022/01/08 02:19:32;;;;;;;20.40;12.32;;;;;;;;;;5034852;28;20025;-66
2022/01/08 02:22:00;;;;;;;19.90;11.55;;;;;;;;;;5034868;28;20036;-65
2022/01/08 02:24:27;;;;;;;23.25;11.95;;;;;;;;;;5034928;28;20068;-65
2022/01/08 02:26:53;;;;;;;18.42;11.60;;;;;;;;;;5034873;28;20024;-68
2022/01/08 02:29:22;;;;;;;20.70;12.00;;;;;;;;;;5034864;28;20044;-65
2022/01/08 02:31:59;;;;;;;18.27;11.63;;;;;;;;;;5034762;28;20124;-68
2022/01/08 02:34:26;;;;;;;20.38;11.80;;;;;;;;;;5034583;28;20523;-67
2022/01/08 02:36:54;;;;;;;19.63;12.30;;;;;;;;;;5027323;28;20045;-65
2022/01/08 02:39:20;;;;;;;20.92;12.57;;;;;;;;;;5014920;28;20037;-67
2022/01/08 02:41:46;;;;;;;24.42;13.60;;;;;;;;;;5014982;28;20029;-68
2022/01/08 02:44:12;;;;;;;18.38;11.13;;;;;;;;;;5014589;28;20544;-67
2022/01/08 02:46:39;;;;;;;21.38;12.20;;;;;;;;;;5014540;28;20106;-67
2022/01/08 02:49:06;;;;;;;22.38;13.07;;;;;;;;;;5014503;28;20046;-70
2022/01/08 02:51:35;;;;;;;23.17;12.75;;;;;;;;;;5014587;28;20018;-66
2022/01/08 02:54:02;;;;;;;24.27;13.25;;;;;;;;;;5014726;28;20038;-66
2022/01/08 02:56:28;;;;;;;25.20;13.90;;;;;;;;;;5014546;28;20026;-66
2022/01/08 02:58:54;;;;;;;24.73;13.38;;;;;;;;;;5014341;28;20030;-64
2022/01/08 03:01:20;;;;;;;28.38;15.05;;;;;;;;;;5014616;28;20400;-68
2022/01/08 03:03:46;;;;;;;24.88;14.18;;;;;;;;;;5014430;28;20121;-67
2022/01/08 03:06:12;;;;;;;26.80;15.25;;;;;;;;;;5014280;28;20116;-65
2022/01/08 03:08:38;;;;;;;27.35;15.07;;;;;;;;;;5014252;28;20034;-65
2022/01/08 03:11:04;;;;;;;25.55;15.88;;;;;;;;;;5013920;28;20392;-66
2022/01/08 03:13:31;;;;;;;25.98;14.93;;;;;;;;;;5014008;28;20054;-65
2022/01/08 03:15:56;;;;;;;27.05;14.35;;;;;;;;;;5014058;28;20022;-65
2022/01/08 03:18:22;;;;;;;21.33;13.23;;;;;;;;;;5013830;28;20362;-65
2022/01/08 03:21:00;;;;;;;22.40;12.43;;;;;;;;;;5014255;28;20053;-66
2022/01/08 03:23:36;;;;;;;21.60;13.13;;;;;;;;;;5019606;28;20033;-64
2022/01/08 03:26:02;;;;;;;21.15;11.55;;;;;;;;;;5033412;28;20388;-64
2022/01/08 03:28:28;;;;;;;21.15;12.02;;;;;;;;;;5033838;28;20032;-65
2022/01/08 03:30:54;;;;;;;22.52;12.48;;;;;;;;;;5033214;28;20085;-64
2022/01/08 03:33:20;;;;;;;20.65;12.05;;;;;;;;;;5033129;28;20029;-65
2022/01/08 03:35:46;;;;;;;18.52;11.43;;;;;;;;;;5033159;28;20116;-65
2022/01/08 03:38:12;;;;;;;21.65;11.77;;;;;;;;;;5033172;28;20025;-64
2022/01/08 03:40:37;;;;;;;18.90;11.85;;;;;;;;;;5033283;28;20065;-65
2022/01/08 03:43:03;;;;;;;19.30;10.93;;;;;;;;;;5048521;28;20458;-66
2022/01/08 03:45:29;;;;;;;19.23;11.30;;;;;;;;;;5033526;28;20029;-64
2022/01/08 03:48:17;;;;;;;25.52;11.38;;;;;;;;;;5033306;28;20025;-66
2022/01/08 03:50:41;;;;;;;18.35;10.98;;;;;;;;;;5033156;28;20431;-65
2022/01/08 03:53:07;;;;;;;17.00;11.10;;;;;;;;;;5032805;28;20101;-65
2022/01/08 03:55:33;;;;;;;18.85;10.55;;;;;;;;;;5032816;28;20448;-67
2022/01/08 03:57:59;;;;;;;22.95;9.75;;;;;;;;;;5032795;28;20495;-67
2022/01/08 04:00:25;;;;;;;17.73;9.93;;;;;;;;;;5033055;28;20083;-65
2022/01/08 04:02:53;;;;;;;18.00;10.77;;;;;;;;;;5032675;28;20025;-64
2022/01/08 04:05:20;;;;;;;23.25;11.48;;;;;;;;;;5032806;28;20037;-64
2022/01/08 04:07:46;;;;;;;20.73;11.20;;;;;;;;;;5032738;28;20033;-64
2022/01/08 04:10:12;;;;;;;17.00;10.38;;;;;;;;;;5032681;28;20033;-64
2022/01/08 04:12:45;;;;;;;17.75;10.75;;;;;;;;;;5032837;28;20369;-64
2022/01/08 04:17:52;;;;;;;19.27;12.05;;;;;;;;;;5032403;28;20077;-65
2022/01/08 04:20:19;;;;;;;29.38;12.60;;;;;;;;;;5032422;28;20058;-64
2022/01/08 04:22:50;;;;;;;26.15;11.73;;;;;;;;;;5032003;28;20037;-64
2022/01/08 04:25:20;;;;;;;19.85;11.88;;;;;;;;;;5032226;28;20087;-64
2022/01/08 04:27:46;;;;;;;20.08;12.20;;;;;;;;;;5032233;28;20172;-66
2022/01/08 04:30:12;;;;;;;19.52;10.77;;;;;;;;;;5032402;28;20056;-65
2022/01/08 04:32:39;;;;;;;17.30;10.73;;;;;;;;;;5032802;28;20030;-65
2022/01/08 04:35:05;;;;;;;20.23;11.25;;;;;;;;;;5031862;28;20131;-65
2022/01/08 04:37:31;;;;;;;20.73;11.40;;;;;;;;;;5032449;28;20073;-64
2022/01/08 04:39:57;;;;;;;22.85;11.18;;;;;;;;;;5047638;28;20032;-64
2022/01/08 04:42:23;;;;;;;20.00;11.63;;;;;;;;;;5032262;28;20026;-64
2022/01/08 04:44:49;;;;;;;18.55;10.40;;;;;;;;;;5032416;28;20068;-65
2022/01/08 04:47:15;;;;;;;14.00;8.43;;;;;;;;;;5015641;28;20128;-64
2022/01/08 04:49:41;;;;;;;15.68;8.93;;;;;;;;;;5012587;28;20033;-64
2022/01/08 04:52:07;;;;;;;18.30;10.40;;;;;;;;;;5012218;28;20542;-66
2022/01/08 04:54:33;;;;;;;18.95;10.00;;;;;;;;;;5012363;28;20073;-65
2022/01/08 04:56:58;;;;;;;22.40;10.93;;;;;;;;;;5011608;28;20025;-63
2022/01/08 04:59:24;;;;;;;20.95;11.43;;;;;;;;;;5012179;28;20080;-66
2022/01/08 05:01:50;;;;;;;34.50;12.52;;;;;;;;;;5011997;28;20033;-65
2022/01/08 05:04:16;;;;;;;27.02;12.43;;;;;;;;;;5012725;28;20038;-66
2022/01/08 05:06:41;;;;;;;20.80;10.48;;;;;;;;;;5012001;28;20384;-65
2022/01/08 05:09:07;;;;;;;19.67;10.35;;;;;;;;;;5012173;28;20045;-64
2022/01/08 05:11:33;;;;;;;19.85;11.00;;;;;;;;;;5012274;28;20029;-64
2022/01/08 05:13:59;;;;;;;20.40;11.60;;;;;;;;;;5012263;28;20104;-63
2022/01/08 05:16:27;;;;;;;24.83;11.93;;;;;;;;;;5011921;28;20137;-64
2022/01/08 05:18:54;;;;;;;28.02;12.38;;;;;;;;;;5019847;28;20156;-64
2022/01/08 05:23:47;;;;;;;23.45;11.25;;;;;;;;;;5031465;28;20392;-64
2022/01/08 05:26:13;;;;;;;18.35;10.43;;;;;;;;;;5031574;28;20028;-66
2022/01/08 05:28:39;;;;;;;19.27;10.27;;;;;;;;;;5031433;28;20370;-64
2022/01/08 05:31:04;;;;;;;14.55;9.07;;;;;;;;;;5029358;28;20096;-64
2022/01/08 05:33:30;;;;;;;19.65;9.80;;;;;;;;;;5031269;28;20065;-64
2022/01/08 05:35:56;;;;;;;18.42;10.23;;;;;;;;;;5031619;28;20096;-68
2022/01/08 05:38:22;;;;;;;20.70;9.88;;;;;;;;;;5029837;28;20112;-70
2022/01/08 05:40:48;;;;;;;13.70;8.30;;;;;;;;;;5020547;28;20022;-67
2022/01/08 05:43:14;;;;;;;15.05;8.57;;;;;;;;;;5011502;28;20065;-67
2022/01/08 05:45:39;;;;;;;17.77;8.50;;;;;;;;;;5011798;28;20033;-67
2022/01/08 05:48:06;;;;;;;21.52;9.63;;;;;;;;;;5014073;28;20041;-67
2022/01/08 05:50:32;;;;;;;22.25;11.65;;;;;;;;;;5015563;28;20440;-67
2022/01/08 05:52:58;;;;;;;16.13;10.43;;;;;;;;;;5015440;28;20045;-68
2022/01/08 05:55:23;;;;;;;24.08;11.40;;;;;;;;;;5024327;28;20025;-68
2022/01/08 05:57:49;;;;;;;16.08;10.48;;;;;;;;;;5034433;28;20384;-67
2022/01/08 06:00:15;;;;;;;17.40;9.90;;;;;;;;;;5034675;28;20037;-67
2022/01/08 06:02:41;;;;;;;16.90;9.23;;;;;;;;;;5033897;28;20061;-66
2022/01/08 06:05:07;;;;;;;18.77;9.82;;;;;;;;;;5034185;28;20540;-67
2022/01/08 06:07:34;;;;;;;18.15;8.35;;;;;;;;;;5023439;28;20099;-67
2022/01/08 06:10:00;;;;;;;15.07;8.63;;;;;;;;;;5026573;28;20171;-67
2022/01/08 06:12:26;;;;;;;16.80;10.20;;;;;;;;;;5033883;28;20048;-66
2022/01/08 06:14:52;;;;;;;14.90;9.15;;;;;;;;;;5035822;28;20487;-67
2022/01/08 06:17:18;;;;;;;12.50;8.55;;;;;;;;;;5033705;28;20033;-68
2022/01/08 06:19:44;;;;;;;15.20;9.18;;;;;;;;;;5033647;28;20022;-67
2022/01/08 06:22:10;;;;;;;15.75;8.90;;;;;;;;;;5033852;28;20037;-67
2022/01/08 06:24:35;;;;;;;17.15;9.15;;;;;;;;;;5032699;28;20392;-66
2022/01/08 06:27:01;;;;;;;16.20;8.88;;;;;;;;;;5031154;28;20107;-67
2022/01/08 06:29:27;;;;;;;12.93;8.00;;;;;;;;;;5032126;28;20022;-67
2022/01/08 06:31:53;;;;;;;15.05;9.23;;;;;;;;;;5032459;28;20037;-67
2022/01/08 06:34:20;;;;;;;19.20;8.82;;;;;;;;;;5033700;28;20043;-67
2022/01/08 06:36:47;;;;;;;19.35;9.82;;;;;;;;;;5033875;28;20041;-67
2022/01/08 06:39:14;;;;;;;17.63;10.07;;;;;;;;;;5034052;28;20064;-66
2022/01/08 06:41:40;;;;;;;19.20;11.10;;;;;;;;;;5035615;28;20478;-67
2022/01/08 06:44:06;;;;;;;20.95;10.93;;;;;;;;;;5036082;28;20038;-68
2022/01/08 06:46:32;;;;;;;28.88;12.10;;;;;;;;;;5035134;28;20034;-67
2022/01/08 06:48:58;;;;;;;19.45;11.43;;;;;;;;;;5035595;28;20088;-67
2022/01/08 06:51:24;;;;;;;22.83;12.07;;;;;;;;;;5035391;28;20035;-67
2022/01/08 06:53:50;;;;;;;24.88;11.77;;;;;;;;;;5034686;28;20327;-68
2022/01/08 06:56:17;;;;;;;20.65;12.30;;;;;;;;;;5035075;28;20511;-69
2022/01/08 06:58:44;;;;;;;19.30;10.98;;;;;;;;;;5034754;28;20030;-69
2022/01/08 07:01:10;;;;;;;17.05;10.38;;;;;;;;;;5034829;28;20044;-68
2022/01/08 07:03:36;;;;;;;16.05;9.77;;;;;;;;;;5034758;28;20026;-68
2022/01/08 07:06:02;;;;;;;21.80;10.52;;;;;;;;;;5034944;28;20388;-68
2022/01/08 07:08:28;;;;;;;18.42;10.50;;;;;;;;;;5035020;28;20029;-67
2022/01/08 07:10:53;;;;;;;21.02;10.85;;;;;;;;;;5034932;28;20038;-68
2022/01/08 07:13:20;;;;;;;11.40;7.25;;;;;;;;;;5034977;28;20026;-68
2022/01/08 07:15:46;;;;;;;12.57;7.30;;;;;;;;;;5034616;28;20041;-69
2022/01/08 07:18:11;;;;;;;19.10;9.30;;;;;;;;;;5034838;28;20106;-68
2022/01/08 07:20:37;;;;;;;14.55;7.93;;;;;;;;;;5034781;28;20564;-68
2022/01/08 07:23:03;;;;;;;15.27;8.35;;;;;;;;;;5034509;28;20033;-68
2022/01/08 07:25:29;;;;;;;13.23;7.90;;;;;;;;;;5034690;28;20064;-69
2022/01/08 07:27:55;;;;;;;14.32;7.85;;;;;;;;;;5034836;28;20056;-69
2022/01/08 07:30:21;;;;;;;11.50;6.63;;;;;;;;;;5034635;28;20045;-66
2022/01/08 07:32:49;;;;;;;13.38;7.43;;;;;;;;;;5034517;28;20041;-66
2022/01/08 07:35:19;;;;;;;12.23;6.72;;;;;;;;;;5033432;28;20033;-67
2022/01/08 07:37:45;;;;;;;14.57;6.65;;;;;;;;;;5030071;28;20357;-75
2022/01/08 07:40:12;;;;;;;11.68;6.30;;;;;;;;;;5030933;28;20116;-72
2022/01/08 07:42:38;;;;;;;10.30;6.40;;;;;;;;;;5033996;28;20033;-70
2022/01/08 07:45:06;;;;;;;11.73;6.25;;;;;;;;;;5033367;28;20076;-71
2022/01/08 07:47:32;;;;;;;10.43;6.38;;;;;;;;;;5032449;28;20594;-71
2022/01/08 07:49:58;;;;;;;13.57;7.38;;;;;;;;;;5033928;28;20112;-71
2022/01/08 07:52:23;;;;;;;11.82;6.20;;;;;;;;;;5033687;28;20100;-69
2022/01/08 07:54:49;;;;;;;10.20;5.68;;;;;;;;;;5033606;28;20388;-71
2022/01/08 07:57:15;;;;;;;11.02;5.88;;;;;;;;;;5033372;28;20626;-72
2022/01/08 07:59:42;;;;;;;9.68;5.57;;;;;;;;;;5033324;28;20543;-69
2022/01/08 08:02:09;;;;;;;15.80;10.30;;;;;;;;;;5033396;28;20025;-67
2022/01/08 08:04:35;;;;;;;18.17;9.57;;;;;;;;;;5032314;28;20045;-70
2022/01/08 08:07:00;;;;;;;17.27;10.18;;;;;;;;;;5031301;28;20024;-71
2022/01/08 08:09:26;;;;;;;17.60;10.60;;;;;;;;;;5030620;28;20030;-73
2022/01/08 08:11:52;;;;;;;20.77;10.50;;;;;;;;;;5030743;28;20460;-72
2022/01/08 08:14:18;;;;;;;22.58;10.88;;;;;;;;;;5032446;28;20049;-73
2022/01/08 08:16:43;;;;;;;17.73;10.80;;;;;;;;;;5031688;28;20028;-71
2022/01/08 08:19:09;;;;;;;16.13;10.25;;;;;;;;;;5033234;28;20507;-72
2022/01/08 08:21:35;;;;;;;16.08;8.98;;;;;;;;;;5032920;28;20575;-69
2022/01/08 08:24:03;;;;;;;25.85;10.85;;;;;;;;;;5032306;28;20049;-73
2022/01/08 08:26:29;;;;;;;17.30;9.68;;;;;;;;;;5032991;28;20464;-73
2022/01/08 08:28:55;;;;;;;19.63;10.50;;;;;;;;;;5032999;28;20037;-70
2022/01/08 08:31:20;;;;;;;16.10;8.90;;;;;;;;;;5032865;28;20037;-72
2022/01/08 08:33:46;;;;;;;18.40;8.50;;;;;;;;;;5032689;28;20495;-73
2022/01/08 08:36:12;;;;;;;16.33;9.05;;;;;;;;;;5049524;28;20509;-71
2022/01/08 08:38:38;;;;;;;13.82;8.45;;;;;;;;;;5052174;28;20033;-75
2022/01/08 08:41:04;;;;;;;14.38;7.47;;;;;;;;;;5052334;28;20027;-72
2022/01/08 08:43:30;;;;;;;9.57;6.55;;;;;;;;;;5051996;28;20033;-75
2022/01/08 08:45:55;;;;;;;9.27;5.50;;;;;;;;;;5052402;28;20018;-72
2022/01/08 08:48:21;;;;;;;8.80;5.07;;;;;;;;;;5052723;28;20530;-73
2022/01/08 08:50:47;;;;;;;8.73;5.30;;;;;;;;;;5052532;28;20438;-72
2022/01/08 08:53:13;;;;;;;9.13;5.80;;;;;;;;;;5052647;28;20041;-71
2022/01/08 08:55:38;;;;;;;9.80;5.70;;;;;;;;;;5052644;28;20089;-73
2022/01/08 08:58:04;;;;;;;10.18;5.22;;;;;;;;;;5052686;28;20037;-72
2022/01/08 09:00:30;;;;;;;8.07;4.93;;;;;;;;;;5052178;28;20028;-74
2022/01/08 09:02:56;;;;;;;7.90;4.35;;;;;;;;;;5052025;28;20056;-71
2022/01/08 09:05:22;;;;;;;7.30;4.82;;;;;;;;;;5052241;28;20090;-73
2022/01/08 09:07:48;;;;;;;7.43;4.82;;;;;;;;;;5052261;28;20029;-73
2022/01/08 09:10:14;;;;;;;9.50;4.90;;;;;;;;;;5052645;28;20438;-70
2022/01/08 09:12:42;;;;;;;8.98;5.35;;;;;;;;;;5052269;28;20043;-74
2022/01/08 09:15:09;;;;;;;7.32;5.00;;;;;;;;;;5051477;28;20078;-74
2022/01/08 09:17:39;;;;;;;11.20;6.00;;;;;;;;;;5052052;28;20460;-72
2022/01/08 09:20:06;;;;;;;11.80;6.97;;;;;;;;;;5051883;28;20112;-71
2022/01/08 09:22:32;;;;;;;9.48;6.15;;;;;;;;;;5051469;28;20025;-75
2022/01/08 09:24:58;;;;;;;8.32;5.70;;;;;;;;;;5051937;28;20033;-71
2022/01/08 09:27:24;;;;;;;9.98;6.13;;;;;;;;;;5052019;28;20025;-70
2022/01/08 09:29:50;;;;;;;9.20;5.75;;;;;;;;;;5045111;28;20407;-71
2022/01/08 09:32:17;;;;;;;12.00;6.72;;;;;;;;;;5032132;28;20121;-71
2022/01/08 09:34:44;;;;;;;12.52;8.63;;;;;;;;;;5031937;28;20037;-74
2022/01/08 09:37:11;;;;;;;12.25;8.05;;;;;;;;;;5031703;28;20091;-74
2022/01/08 09:39:39;;;;;;;11.90;8.45;;;;;;;;;;5030765;28;20362;-79
2022/01/08 09:42:08;;;;;;;12.30;7.35;;;;;;;;;;5031756;28;20028;-73
2022/01/08 09:44:37;;;;;;;9.65;5.93;;;;;;;;;;5032096;28;20119;-75
2022/01/08 09:47:04;;;;;;;10.15;6.13;;;;;;;;;;5031940;28;20022;-77
2022/01/08 09:49:31;;;;;;;11.23;6.43;;;;;;;;;;5031181;28;20076;-75
2022/01/08 09:51:56;;;;;;;11.70;6.00;;;;;;;;;;5030880;28;20061;-77
2022/01/08 09:54:22;;;;;;;10.38;5.90;;;;;;;;;;5029828;28;20485;-73
2022/01/08 09:56:48;;;;;;;10.85;5.22;;;;;;;;;;5031608;28;20025;-72
2022/01/08 09:59:14;;;;;;;19.45;6.35;;;;;;;;;;5031784;28;20034;-76
2022/01/08 10:01:40;;;;;;;14.90;6.90;;;;;;;;;;5030483;28;20385;-72
2022/01/08 10:04:06;;;;;;;11.13;5.93;;;;;;;;;;5038792;28;20033;-76
2022/01/08 10:06:34;;;;;;;10.30;6.32;;;;;;;;;;5010145;28;20022;-77
2022/01/08 10:09:00;;;;;;;11.75;6.22;;;;;;;;;;5011438;28;20109;-77
2022/01/08 10:11:28;;;;;;;9.05;6.18;;;;;;;;;;5026218;28;20377;-76
2022/01/08 10:14:03;;;;;;;14.73;5.00;;;;;;;;;;5028033;28;20078;-75
2022/01/08 10:19:20;;;;;;;9.50;4.25;;;;;;;;;;5029936;28;20037;-75
2022/01/08 10:21:47;;;;;;;10.55;5.18;;;;;;;;;;5030813;28;20425;-76
2022/01/08 10:24:20;;;;;;;10.48;4.53;;;;;;;;;;5031505;28;20033;-78
2022/01/08 10:26:46;;;;;;;5.20;3.83;;;;;;;;;;5018399;28;20038;-76
2022/01/08 10:29:14;;;;;;;5.28;3.10;;;;;;;;;;5030712;28;20033;-72
2022/01/08 10:31:43;;;;;;;6.50;3.60;;;;;;;;;;5030542;28;20357;-74
2022/01/08 10:34:16;;;;;;;5.63;3.13;;;;;;;;;;5033960;28;20045;-75
2022/01/08 10:36:54;;;;;;;6.90;3.25;;;;;;;;;;5034515;28;20124;-74
2022/01/08 10:39:27;;;;;;;7.05;3.97;;;;;;;;;;5028011;28;20111;-70
2022/01/08 10:41:54;;;;;;;8.35;3.95;;;;;;;;;;5027162;28;20187;-70
2022/01/08 10:44:28;;;;;;;7.78;3.55;;;;;;;;;;5034169;28;20377;-73
2022/01/08 10:46:56;;;;;;;8.07;3.85;;;;;;;;;;5026906;28;20033;-70
2022/01/08 10:49:37;;;;;;;5.82;3.42;;;;;;;;;;5032287;28;20026;-71
2022/01/08 10:52:12;;;;;;;7.88;3.70;;;;;;;;;;5035740;28;20033;-73
2022/01/08 10:54:47;;;;;;;6.07;3.45;;;;;;;;;;5035214;28;20037;-71
2022/01/08 10:57:14;;;;;;;6.18;4.05;;;;;;;;;;5034304;28;20129;-75
2022/01/08 10:59:42;;;;;;;5.03;3.58;;;;;;;;;;5034304;28;20022;-73
2022/01/08 11:02:12;;;;;;;7.35;4.55;;;;;;;;;;5034597;28;20037;-73
2022/01/08 11:04:46;;;;;;;6.55;4.60;;;;;;;;;;5034465;28;20045;-73
2022/01/08 11:07:14;;;;;;;;;;;;;;;;;;5034594;28;20040;-73
2022/01/08 11:09:41;;;;;;;8.82;4.57;;;;;;;;;;5034316;28;19913;-73
2022/01/08 11:12:13;;;;;;;7.60;4.65;;;;;;;;;;5034794;28;20037;-71
2022/01/08 11:17:29;;;;;;;8.10;5.28;;;;;;;;;;5033893;28;20033;-73
2022/01/08 11:20:03;;;;;;;7.65;4.60;;;;;;;;;;5033641;28;20029;-72
2022/01/08 11:22:31;;;;;;;9.88;5.45;;;;;;;;;;5033650;28;20091;-71
2022/01/08 11:25:06;;;;;;;8.80;5.45;;;;;;;;;;5022578;28;20109;-70
2022/01/08 11:27:47;;;;;;;5.80;4.47;;;;;;;;;;5019429;28;20175;-73
2022/01/08 11:30:22;;;;;;;6.03;4.75;;;;;;;;;;5032659;28;20098;-72
2022/01/08 11:32:51;;;;;;;10.50;6.00;;;;;;;;;;5013671;28;20057;-70
2022/01/08 11:35:18;;;;;;;10.25;6.60;;;;;;;;;;5013585;28;20144;-71
2022/01/08 11:37:49;;;;;;;13.93;6.82;;;;;;;;;;5013952;28;20030;-70
2022/01/08 11:40:18;;;;;;;10.07;5.85;;;;;;;;;;5014064;28;20034;-72
2022/01/08 11:42:45;;;;;;;11.40;6.88;;;;;;;;;;5013971;28;20030;-79
2022/01/08 11:45:15;;;;;;;12.80;8.68;;;;;;;;;;5012871;28;20044;-79
2022/01/08 11:47:47;;;;;;;11.02;7.65;;;;;;;;;;5013503;28;20038;-78
2022/01/08 11:50:17;;;;;;;13.85;9.60;;;;;;;;;;5013759;28;20065;-78
2022/01/08 11:52:43;;;;;;;14.85;10.68;;;;;;;;;;5014221;28;20033;-76
2022/01/08 11:55:09;;;;;;;11.25;8.18;;;;;;;;;;5014171;28;20030;-77
2022/01/08 11:57:35;;;;;;;12.57;8.43;;;;;;;;;;5014036;28;20094;-75
2022/01/08 12:00:04;;;;;;;12.57;7.28;;;;;;;;;;5013761;28;20115;-77
2022/01/08 12:02:38;;;;;;;10.55;6.90;;;;;;;;;;5014179;28;20057;-79
2022/01/08 12:05:05;;;;;;;12.25;7.97;;;;;;;;;;5013844;28;20116;-79
2022/01/08 12:07:38;;;;;;;13.63;8.40;;;;;;;;;;5013344;28;20026;-76
2022/01/08 12:10:17;;;;;;;9.85;6.43;;;;;;;;;;5013596;28;20030;-70
2022/01/08 12:12:43;;;;;;;11.52;7.25;;;;;;;;;;5013030;28;20030;-78
2022/01/08 12:15:09;;;;;;;11.80;7.95;;;;;;;;;;5012906;28;20029;-76
2022/01/08 12:17:52;;;;;;;24.58;16.08;;;;;;;;;;5013614;28;20038;-73
2022/01/08 12:20:44;;;;;;;26.38;18.55;;;;;;;;;;5013411;28;20029;-77
2022/01/08 12:23:27;;;;;;;20.55;14.30;;;;;;;;;;5013438;28;20496;-71
2022/01/08 12:25:54;;;;;;;16.95;11.05;;;;;;;;;;5012880;28;20030;-75
2022/01/08 12:28:57;;;;;;;34.03;19.50;;;;;;;;;;5021515;28;20030;-69
2022/01/08 12:31:44;;;;;;;32.45;21.77;;;;;;;;;;5032895;28;20095;-78
2022/01/08 12:34:30;;;;;;;43.80;33.30;;;;;;;;;;5048000;28;20148;-76
2022/01/08 12:36:58;;;;;;;46.50;34.67;;;;;;;;;;5032981;28;20388;-77
2022/01/08 12:39:48;;;;;;;42.05;31.52;;;;;;;;;;5032793;28;20036;-71
2022/01/08 12:42:20;;;;;;;36.88;28.60;;;;;;;;;;5032663;28;20403;-75
2022/01/08 12:45:06;;;;;;;44.35;31.60;;;;;;;;;;5032350;28;20045;-70
2022/01/08 12:48:04;;;;;;;36.78;24.25;;;;;;;;;;5032703;28;20499;-71
2022/01/08 12:50:42;;;;;;;25.25;18.98;;;;;;;;;;5027584;28;20056;-70
2022/01/08 12:53:08;;;;;;;23.17;16.63;;;;;;;;;;5032605;28;20060;-71
2022/01/08 12:55:49;;;;;;;45.60;21.95;;;;;;;;;;5032529;28;20029;-70
2022/01/08 12:58:26;;;;;;;32.63;24.30;;;;;;;;;;5032562;28;20083;-72
2022/01/08 13:01:17;;;;;;;29.35;22.38;;;;;;;;;;5032727;28;20090;-70
2022/01/08 13:03:46;;;;;;;43.42;27.65;;;;;;;;;;5031932;28;20140;-72
2022/01/08 13:06:14;;;;;;;32.03;20.88;;;;;;;;;;5031712;28;20033;-74
2022/01/08 13:08:42;;;;;;;37.15;24.45;;;;;;;;;;5032496;28;20048;-71
2022/01/08 13:11:11;;;;;;;53.85;35.08;;;;;;;;;;5032463;28;20025;-73
2022/01/08 13:13:49;;;;;;;38.10;29.50;;;;;;;;;;5032603;28;20392;-72
2022/01/08 13:16:16;;;;;;;36.60;23.63;;;;;;;;;;5032438;28;20037;-74
2022/01/08 13:18:50;;;;;;;21.73;14.32;;;;;;;;;;5032048;28;20119;-72
2022/01/08 13:21:17;;;;;;;18.60;13.32;;;;;;;;;;5032224;28;20072;-74
2022/01/08 13:23:51;;;;;;;24.83;12.75;;;;;;;;;;5031858;28;20036;-72
2022/01/08 13:26:27;;;;;;;19.27;11.50;;;;;;;;;;5030527;28;20376;-71
2022/01/08 13:28:54;;;;;;;41.22;18.42;;;;;;;;;;5032357;28;20032;-74
2022/01/08 13:31:19;;;;;;;24.75;18.55;;;;;;;;;;5031715;28;20041;-74
2022/01/08 13:33:55;;;;;;;16.13;11.25;;;;;;;;;;5031983;28;20056;-72
2022/01/08 13:36:22;;;;;;;18.58;12.40;;;;;;;;;;5032025;28;20112;-74
2022/01/08 13:38:48;;;;;;;16.85;11.57;;;;;;;;;;5032291;28;20025;-73
2022/01/08 13:41:17;;;;;;;34.65;12.23;;;;;;;;;;5032235;28;20030;-70
2022/01/08 13:44:04;;;;;;;14.82;8.70;;;;;;;;;;5031689;28;20030;-77
2022/01/08 13:46:34;;;;;;;23.25;7.95;;;;;;;;;;5031544;28;20080;-79
2022/01/08 13:49:02;;;;;;;20.60;9.15;;;;;;;;;;5030258;28;20025;-77
2022/01/08 13:51:31;;;;;;;15.07;7.72;;;;;;;;;;5031954;28;20037;-76
2022/01/08 13:53:58;;;;;;;15.20;8.95;;;;;;;;;;5032097;28;20104;-77
2022/01/08 13:56:25;;;;;;;19.75;9.20;;;;;;;;;;5031547;28;20080;-73
2022/01/08 13:58:51;;;;;;;14.68;7.43;;;;;;;;;;5032089;28;20080;-74
2022/01/08 14:01:18;;;;;;;11.30;6.10;;;;;;;;;;5032097;28;20041;-76
2022/01/08 14:03:47;;;;;;;20.70;6.53;;;;;;;;;;5031955;28;20026;-77
2022/01/08 14:06:27;;;;;;;12.05;5.35;;;;;;;;;;5047162;28;20045;-79
2022/01/08 14:08:56;;;;;;;12.13;6.65;;;;;;;;;;5033694;28;20040;-77
2022/01/08 14:11:23;;;;;;;11.75;5.80;;;;;;;;;;5035735;28;20079;-77
2022/01/08 14:13:55;;;;;;;8.00;5.10;;;;;;;;;;5035780;28;20025;-76
2022/01/08 14:16:39;;;;;;;13.88;7.75;;;;;;;;;;5036182;28;20033;-78
2022/01/08 14:19:09;;;;;;;28.50;7.47;;;;;;;;;;5035755;28;20061;-78
2022/01/08 14:21:36;;;;;;;11.25;7.35;;;;;;;;;;5035356;28;20037;-76
2022/01/08 14:24:18;;;;;;;16.65;8.55;;;;;;;;;;5035598;28;20446;-77
2022/01/08 14:27:07;;;;;;;12.10;7.05;;;;;;;;;;5035208;28;20064;-77
2022/01/08 14:30:01;;;;;;;12.55;6.88;;;;;;;;;;5035282;28;20417;-78
2022/01/08 14:32:28;;;;;;;9.95;5.85;;;;;;;;;;5034374;28;20037;-73
2022/01/08 14:35:01;;;;;;;13.45;6.63;;;;;;;;;;5034543;28;20025;-75
2022/01/08 14:37:38;;;;;;;13.52;7.40;;;;;;;;;;5034800;28;20474;-72
2022/01/08 14:40:25;;;;;;;17.33;7.55;;;;;;;;;;5034842;28;20036;-74
2022/01/08 14:43:04;;;;;;;9.77;6.95;;;;;;;;;;5034953;28;20112;-72
2022/01/08 14:45:35;;;;;;;20.05;15.63;;;;;;;;;;5034965;28;20112;-74
2022/01/08 14:48:03;;;;;;;22.45;13.68;;;;;;;;;;5034708;28;20042;-73
2022/01/08 14:50:31;;;;;;;14.43;8.82;;;;;;;;;;5034907;28;20025;-74
2022/01/08 14:53:03;;;;;;;16.85;11.27;;;;;;;;;;5035353;28;20388;-72
2022/01/08 14:55:35;;;;;;;13.60;9.25;;;;;;;;;;5034856;28;20466;-73
2022/01/08 14:58:02;;;;;;;11.75;6.25;;;;;;;;;;5034884;28;20034;-73
2022/01/08 15:00:28;;;;;;;9.25;5.65;;;;;;;;;;5034484;28;20040;-76
2022/01/08 15:02:55;;;;;;;5.03;2.38;;;;;;;;;;5034248;28;20029;-75
2022/01/08 15:05:21;;;;;;;4.20;2.20;;;;;;;;;;5034769;28;20025;-74